Quincy Regional Baldwin Field
KUIN : now visible

Airfield :











YOU CAN JOIN US ON...

 
LOGIN :

Register | Disclaimer

   EN    FR    IT 

 









Legend :    VFR   Marginal VFR   IFR   Intensive IFR   Very Intensive IFR
Visi :
Ceiling :
>= 8 km
>= 3000ft
5 to 8 km
1000 to 3000 ft
1500m to 5 km
500 to 1000 ft
800 to 1500m
200 to 500 ft
< 800m
< 200 ft
Symbols :   Thunderstorms  Fog  Heavy snow  Heavy precipitations  Wind > 20 kt






- Airport Elevation : 768 ft
- IATA code : UIN


KUIN - Quincy Regional Baldwin Field

CURRENT METAR :
  • 260054Z AUTO 13009KT 10SM CLR 21/18 A2989 RMK AO2 RAB13E24 SLP116 P0000 T02110183

EXPIRED METARs :
  • 252354Z AUTO 15005KT 10SM CLR 22/18 A2988 RMK AO2 LTG DSNT E SLP111 60005 T02170183 10283 20206 50002
  • 252254Z AUTO 10007KT 10SM CLR 22/18 A2988 RMK AO2 LTG DSNT N AND NE RAE35 TSB03E18 SLP111 P0003 T02220178
  • 252224Z AUTO 13006KT 6SM -RA BKN100 BKN120 22/17 A2989 RMK AO2 LTG DSNT N-E TSB03E18 P0003 T02170172

TAF KUIN
Valid from the 26 at 00:00 until the 27 at 00:00 UTC


252334Z 2600/2624 12008KT P6SM OVC060
FM261800 17012G19KT P6SM VCTS BKN040CB
KZKC FIR / North America



MET'MAP, your aeronautical weather chart ! - Copyright ORBIFLY December 2007 - Disclaimer

ORBIFLY MET'MAP TEAM :

Programming & Development : Alexandra Zaïnal
Concept & original design : Baudouin d'Aumeries
Assistance for programming : Marc-Olivier Méhu
Technical & hardware support : Manuel Goepfert

Contact : metmap@orbifly.com




SOURCES & CREDITS :

   NOAA       Earth
Advisory